sensor_id;sensor_type;location;lat;lon;timestamp;P1;durP1;ratioP1;P2;durP2;ratioP2
8895;SDS011;4484;48.928;10.066;2022-09-09T00:00:14;0.60;;;0.50;;
8895;SDS011;4484;48.928;10.066;2022-09-09T00:02:45;1.23;;;0.50;;
8895;SDS011;4484;48.928;10.066;2022-09-09T00:05:44;0.50;;;0.40;;
8895;SDS011;4484;48.928;10.066;2022-09-09T00:08:24;0.43;;;0.43;;
8895;SDS011;4484;48.928;10.066;2022-09-09T00:11:01;0.50;;;0.40;;
8895;SDS011;4484;48.928;10.066;2022-09-09T00:13:34;0.40;;;0.40;;
8895;SDS011;4484;48.928;10.066;2022-09-09T00:16:17;0.40;;;0.40;;
8895;SDS011;4484;48.928;10.066;2022-09-09T00:18:58;0.57;;;0.50;;
8895;SDS011;4484;48.928;10.066;2022-09-09T00:21:37;1.70;;;0.43;;
8895;SDS011;4484;48.928;10.066;2022-09-09T00:24:10;0.57;;;0.47;;
8895;SDS011;4484;48.928;10.066;2022-09-09T00:26:45;1.13;;;0.70;;
8895;SDS011;4484;48.928;10.066;2022-09-09T00:29:36;0.40;;;0.40;;
8895;SDS011;4484;48.928;10.066;2022-09-09T00:32:12;0.40;;;0.40;;
8895;SDS011;4484;48.928;10.066;2022-09-09T00:34:47;0.73;;;0.57;;
8895;SDS011;4484;48.928;10.066;2022-09-09T00:37:29;0.60;;;0.60;;
8895;SDS011;4484;48.928;10.066;2022-09-09T00:39:59;0.80;;;0.40;;
8895;SDS011;4484;48.928;10.066;2022-09-09T00:42:47;0.70;;;0.50;;
8895;SDS011;4484;48.928;10.066;2022-09-09T00:48:09;0.50;;;0.50;;
8895;SDS011;4484;48.928;10.066;2022-09-09T00:50:57;0.80;;;0.40;;
8895;SDS011;4484;48.928;10.066;2022-09-09T00:53:51;0.77;;;0.53;;
8895;SDS011;4484;48.928;10.066;2022-09-09T00:56:46;0.77;;;0.43;;
8895;SDS011;4484;48.928;10.066;2022-09-09T00:59:25;0.70;;;0.50;;
8895;SDS011;4484;48.928;10.066;2022-09-09T01:02:07;0.30;;;0.30;;
8895;SDS011;4484;48.928;10.066;2022-09-09T01:04:43;1.33;;;0.60;;
8895;SDS011;4484;48.928;10.066;2022-09-09T01:07:14;1.17;;;0.50;;
8895;SDS011;4484;48.928;10.066;2022-09-09T01:09:52;1.27;;;0.53;;
8895;SDS011;4484;48.928;10.066;2022-09-09T01:12:39;2.17;;;0.40;;
8895;SDS011;4484;48.928;10.066;2022-09-09T01:15:15;1.47;;;1.00;;
8895;SDS011;4484;48.928;10.066;2022-09-09T01:17:53;1.27;;;0.60;;
8895;SDS011;4484;48.928;10.066;2022-09-09T01:20:34;0.93;;;0.63;;
8895;SDS011;4484;48.928;10.066;2022-09-09T01:26:43;0.93;;;0.60;;
8895;SDS011;4484;48.928;10.066;2022-09-09T01:29:20;0.57;;;0.53;;
8895;SDS011;4484;48.928;10.066;2022-09-09T01:31:56;0.67;;;0.40;;
8895;SDS011;4484;48.928;10.066;2022-09-09T01:34:27;0.97;;;0.40;;
8895;SDS011;4484;48.928;10.066;2022-09-09T01:37:03;0.57;;;0.40;;
8895;SDS011;4484;48.928;10.066;2022-09-09T01:39:34;0.80;;;0.40;;
8895;SDS011;4484;48.928;10.066;2022-09-09T01:42:07;0.43;;;0.43;;
8895;SDS011;4484;48.928;10.066;2022-09-09T01:44:37;0.60;;;0.43;;
8895;SDS011;4484;48.928;10.066;2022-09-09T01:47:07;0.70;;;0.57;;
8895;SDS011;4484;48.928;10.066;2022-09-09T01:49:45;1.03;;;0.40;;
8895;SDS011;4484;48.928;10.066;2022-09-09T01:52:20;0.60;;;0.50;;
8895;SDS011;4484;48.928;10.066;2022-09-09T01:54:47;0.40;;;0.40;;
8895;SDS011;4484;48.928;10.066;2022-09-09T02:02:58;1.00;;;0.50;;
8895;SDS011;4484;48.928;10.066;2022-09-09T02:08:37;0.83;;;0.57;;
8895;SDS011;4484;48.928;10.066;2022-09-09T02:13:57;0.83;;;0.33;;
8895;SDS011;4484;48.928;10.066;2022-09-09T02:16:35;0.97;;;0.50;;
8895;SDS011;4484;48.928;10.066;2022-09-09T02:19:12;0.77;;;0.40;;
8895;SDS011;4484;48.928;10.066;2022-09-09T02:22:04;0.93;;;0.50;;
8895;SDS011;4484;48.928;10.066;2022-09-09T02:24:32;1.20;;;0.40;;
8895;SDS011;4484;48.928;10.066;2022-09-09T02:27:11;0.30;;;0.30;;
8895;SDS011;4484;48.928;10.066;2022-09-09T02:29:41;0.40;;;0.40;;
8895;SDS011;4484;48.928;10.066;2022-09-09T02:32:14;0.40;;;0.37;;
8895;SDS011;4484;48.928;10.066;2022-09-09T02:34:45;0.30;;;0.30;;
8895;SDS011;4484;48.928;10.066;2022-09-09T02:37:15;1.63;;;0.50;;
8895;SDS011;4484;48.928;10.066;2022-09-09T02:39:49;0.40;;;0.40;;
8895;SDS011;4484;48.928;10.066;2022-09-09T02:42:19;1.50;;;0.40;;
8895;SDS011;4484;48.928;10.066;2022-09-09T02:44:46;0.50;;;0.50;;
8895;SDS011;4484;48.928;10.066;2022-09-09T02:50:12;1.27;;;0.60;;
8895;SDS011;4484;48.928;10.066;2022-09-09T02:58:09;0.43;;;0.43;;
8895;SDS011;4484;48.928;10.066;2022-09-09T03:00:40;1.20;;;0.60;;
8895;SDS011;4484;48.928;10.066;2022-09-09T03:03:07;1.53;;;0.60;;
8895;SDS011;4484;48.928;10.066;2022-09-09T03:05:37;2.80;;;1.17;;
8895;SDS011;4484;48.928;10.066;2022-09-09T03:08:05;2.63;;;0.67;;
8895;SDS011;4484;48.928;10.066;2022-09-09T03:10:32;1.30;;;0.80;;
8895;SDS011;4484;48.928;10.066;2022-09-09T03:12:59;1.00;;;0.70;;
8895;SDS011;4484;48.928;10.066;2022-09-09T03:15:34;1.53;;;0.60;;
8895;SDS011;4484;48.928;10.066;2022-09-09T03:18:01;1.33;;;0.70;;
8895;SDS011;4484;48.928;10.066;2022-09-09T03:20:29;0.60;;;0.53;;
8895;SDS011;4484;48.928;10.066;2022-09-09T03:22:56;0.40;;;0.40;;
8895;SDS011;4484;48.928;10.066;2022-09-09T03:25:25;0.60;;;0.50;;
8895;SDS011;4484;48.928;10.066;2022-09-09T03:27:53;3.03;;;0.47;;
8895;SDS011;4484;48.928;10.066;2022-09-09T03:30:24;0.50;;;0.50;;
8895;SDS011;4484;48.928;10.066;2022-09-09T03:32:54;1.10;;;0.47;;
8895;SDS011;4484;48.928;10.066;2022-09-09T03:35:24;2.50;;;0.67;;
8895;SDS011;4484;48.928;10.066;2022-09-09T03:37:50;0.53;;;0.50;;
8895;SDS011;4484;48.928;10.066;2022-09-09T03:40:17;1.17;;;0.60;;
8895;SDS011;4484;48.928;10.066;2022-09-09T03:42:46;1.20;;;0.50;;
8895;SDS011;4484;48.928;10.066;2022-09-09T03:45:16;1.43;;;0.60;;
8895;SDS011;4484;48.928;10.066;2022-09-09T03:47:43;1.37;;;0.60;;
8895;SDS011;4484;48.928;10.066;2022-09-09T03:50:10;1.10;;;0.60;;
8895;SDS011;4484;48.928;10.066;2022-09-09T03:52:42;2.27;;;0.50;;
8895;SDS011;4484;48.928;10.066;2022-09-09T03:55:16;0.70;;;0.50;;
8895;SDS011;4484;48.928;10.066;2022-09-09T03:57:43;1.90;;;0.60;;
8895;SDS011;4484;48.928;10.066;2022-09-09T04:00:11;0.87;;;0.63;;
8895;SDS011;4484;48.928;10.066;2022-09-09T04:02:49;0.50;;;0.40;;
8895;SDS011;4484;48.928;10.066;2022-09-09T04:05:17;0.60;;;0.50;;
8895;SDS011;4484;48.928;10.066;2022-09-09T04:07:46;0.90;;;0.53;;
8895;SDS011;4484;48.928;10.066;2022-09-09T04:10:14;0.37;;;0.33;;
8895;SDS011;4484;48.928;10.066;2022-09-09T04:12:43;0.63;;;0.40;;
8895;SDS011;4484;48.928;10.066;2022-09-09T04:15:14;2.30;;;0.73;;
8895;SDS011;4484;48.928;10.066;2022-09-09T04:17:42;3.73;;;1.00;;
8895;SDS011;4484;48.928;10.066;2022-09-09T04:20:10;1.00;;;0.70;;
8895;SDS011;4484;48.928;10.066;2022-09-09T04:22:38;1.30;;;0.70;;
8895;SDS011;4484;48.928;10.066;2022-09-09T04:25:06;2.70;;;0.80;;
8895;SDS011;4484;48.928;10.066;2022-09-09T04:27:33;1.13;;;0.70;;
8895;SDS011;4484;48.928;10.066;2022-09-09T04:30:00;4.33;;;0.90;;
8895;SDS011;4484;48.928;10.066;2022-09-09T04:32:32;5.00;;;1.03;;
8895;SDS011;4484;48.928;10.066;2022-09-09T04:35:00;8.77;;;1.30;;
8895;SDS011;4484;48.928;10.066;2022-09-09T04:37:26;4.43;;;0.97;;
8895;SDS011;4484;48.928;10.066;2022-09-09T04:39:54;2.47;;;1.00;;
8895;SDS011;4484;48.928;10.066;2022-09-09T04:42:21;1.13;;;0.60;;
8895;SDS011;4484;48.928;10.066;2022-09-09T04:44:49;2.30;;;0.63;;
8895;SDS011;4484;48.928;10.066;2022-09-09T04:47:16;2.37;;;0.73;;
8895;SDS011;4484;48.928;10.066;2022-09-09T04:49:43;1.90;;;0.63;;
8895;SDS011;4484;48.928;10.066;2022-09-09T04:52:10;4.03;;;1.10;;
8895;SDS011;4484;48.928;10.066;2022-09-09T04:54:37;2.57;;;0.73;;
8895;SDS011;4484;48.928;10.066;2022-09-09T04:57:05;1.97;;;0.90;;
8895;SDS011;4484;48.928;10.066;2022-09-09T04:59:32;3.43;;;1.20;;
8895;SDS011;4484;48.928;10.066;2022-09-09T05:02:01;1.63;;;0.80;;
8895;SDS011;4484;48.928;10.066;2022-09-09T05:04:28;1.23;;;0.70;;
8895;SDS011;4484;48.928;10.066;2022-09-09T05:06:55;2.40;;;0.80;;
8895;SDS011;4484;48.928;10.066;2022-09-09T05:09:23;2.70;;;0.80;;
8895;SDS011;4484;48.928;10.066;2022-09-09T05:11:50;2.70;;;1.40;;
8895;SDS011;4484;48.928;10.066;2022-09-09T05:14:33;5.33;;;1.70;;
8895;SDS011;4484;48.928;10.066;2022-09-09T05:17:03;4.87;;;1.10;;
8895;SDS011;4484;48.928;10.066;2022-09-09T05:19:33;3.90;;;1.40;;
8895;SDS011;4484;48.928;10.066;2022-09-09T05:22:00;5.00;;;0.97;;
8895;SDS011;4484;48.928;10.066;2022-09-09T05:24:35;1.77;;;1.00;;
8895;SDS011;4484;48.928;10.066;2022-09-09T05:27:03;3.07;;;1.00;;
8895;SDS011;4484;48.928;10.066;2022-09-09T05:29:32;3.03;;;0.80;;
8895;SDS011;4484;48.928;10.066;2022-09-09T05:32:04;3.17;;;0.77;;
8895;SDS011;4484;48.928;10.066;2022-09-09T05:34:34;1.67;;;0.70;;
8895;SDS011;4484;48.928;10.066;2022-09-09T05:37:01;0.60;;;0.60;;
8895;SDS011;4484;48.928;10.066;2022-09-09T05:39:28;3.87;;;1.17;;
8895;SDS011;4484;48.928;10.066;2022-09-09T05:41:55;1.17;;;0.60;;
8895;SDS011;4484;48.928;10.066;2022-09-09T05:44:22;2.30;;;0.60;;
8895;SDS011;4484;48.928;10.066;2022-09-09T05:46:54;0.60;;;0.50;;
8895;SDS011;4484;48.928;10.066;2022-09-09T05:49:21;1.03;;;0.60;;
8895;SDS011;4484;48.928;10.066;2022-09-09T05:51:48;2.67;;;1.00;;
8895;SDS011;4484;48.928;10.066;2022-09-09T05:54:18;5.30;;;0.90;;
8895;SDS011;4484;48.928;10.066;2022-09-09T05:56:48;1.33;;;0.90;;
8895;SDS011;4484;48.928;10.066;2022-09-09T05:59:18;2.90;;;0.70;;
8895;SDS011;4484;48.928;10.066;2022-09-09T06:01:45;1.70;;;0.80;;
8895;SDS011;4484;48.928;10.066;2022-09-09T06:04:20;0.87;;;0.60;;
8895;SDS011;4484;48.928;10.066;2022-09-09T06:06:48;2.30;;;0.77;;
8895;SDS011;4484;48.928;10.066;2022-09-09T06:09:17;1.73;;;0.70;;
8895;SDS011;4484;48.928;10.066;2022-09-09T06:11:44;1.07;;;0.50;;
8895;SDS011;4484;48.928;10.066;2022-09-09T06:14:13;1.77;;;0.80;;
8895;SDS011;4484;48.928;10.066;2022-09-09T06:16:42;3.97;;;0.80;;
8895;SDS011;4484;48.928;10.066;2022-09-09T06:19:16;4.27;;;0.80;;
8895;SDS011;4484;48.928;10.066;2022-09-09T06:21:43;1.80;;;1.00;;
8895;SDS011;4484;48.928;10.066;2022-09-09T06:24:11;4.07;;;0.97;;
8895;SDS011;4484;48.928;10.066;2022-09-09T06:26:41;3.57;;;1.00;;
8895;SDS011;4484;48.928;10.066;2022-09-09T06:29:11;1.73;;;0.80;;
8895;SDS011;4484;48.928;10.066;2022-09-09T06:31:40;2.73;;;0.60;;
8895;SDS011;4484;48.928;10.066;2022-09-09T06:34:20;2.53;;;0.90;;
8895;SDS011;4484;48.928;10.066;2022-09-09T06:36:51;2.83;;;0.93;;
8895;SDS011;4484;48.928;10.066;2022-09-09T06:39:18;2.63;;;0.83;;
8895;SDS011;4484;48.928;10.066;2022-09-09T06:41:45;2.57;;;0.70;;
8895;SDS011;4484;48.928;10.066;2022-09-09T06:44:33;1.93;;;0.70;;
8895;SDS011;4484;48.928;10.066;2022-09-09T06:47:02;3.67;;;0.80;;
8895;SDS011;4484;48.928;10.066;2022-09-09T06:49:30;1.43;;;0.60;;
8895;SDS011;4484;48.928;10.066;2022-09-09T06:52:03;1.70;;;0.90;;
8895;SDS011;4484;48.928;10.066;2022-09-09T06:54:30;6.73;;;1.17;;
8895;SDS011;4484;48.928;10.066;2022-09-09T06:56:57;1.87;;;0.77;;
8895;SDS011;4484;48.928;10.066;2022-09-09T06:59:46;2.07;;;0.83;;
8895;SDS011;4484;48.928;10.066;2022-09-09T07:02:13;2.33;;;0.90;;
8895;SDS011;4484;48.928;10.066;2022-09-09T07:04:40;4.57;;;1.07;;
8895;SDS011;4484;48.928;10.066;2022-09-09T07:07:07;2.50;;;0.50;;
8895;SDS011;4484;48.928;10.066;2022-09-09T07:09:36;2.37;;;0.80;;
8895;SDS011;4484;48.928;10.066;2022-09-09T07:12:04;1.23;;;0.63;;
8895;SDS011;4484;48.928;10.066;2022-09-09T07:14:34;3.20;;;0.63;;
8895;SDS011;4484;48.928;10.066;2022-09-09T07:17:06;4.17;;;0.97;;
8895;SDS011;4484;48.928;10.066;2022-09-09T07:19:36;2.50;;;0.80;;
8895;SDS011;4484;48.928;10.066;2022-09-09T07:22:04;2.10;;;0.60;;
8895;SDS011;4484;48.928;10.066;2022-09-09T07:24:33;2.57;;;0.83;;
8895;SDS011;4484;48.928;10.066;2022-09-09T07:27:02;3.17;;;0.80;;
8895;SDS011;4484;48.928;10.066;2022-09-09T07:29:29;2.27;;;0.90;;
8895;SDS011;4484;48.928;10.066;2022-09-09T07:31:56;1.47;;;0.50;;
8895;SDS011;4484;48.928;10.066;2022-09-09T07:34:29;1.73;;;0.90;;
8895;SDS011;4484;48.928;10.066;2022-09-09T07:36:56;2.60;;;1.00;;
8895;SDS011;4484;48.928;10.066;2022-09-09T07:39:23;3.90;;;0.90;;
8895;SDS011;4484;48.928;10.066;2022-09-09T07:41:52;3.50;;;1.20;;
8895;SDS011;4484;48.928;10.066;2022-09-09T07:44:23;4.73;;;1.17;;
8895;SDS011;4484;48.928;10.066;2022-09-09T07:47:01;5.10;;;1.00;;
8895;SDS011;4484;48.928;10.066;2022-09-09T07:49:34;3.00;;;0.87;;
8895;SDS011;4484;48.928;10.066;2022-09-09T07:52:03;2.30;;;0.80;;
8895;SDS011;4484;48.928;10.066;2022-09-09T07:54:31;3.55;;;0.80;;
8895;SDS011;4484;48.928;10.066;2022-09-09T07:57:01;3.40;;;0.73;;
8895;SDS011;4484;48.928;10.066;2022-09-09T07:59:31;0.60;;;0.60;;
8895;SDS011;4484;48.928;10.066;2022-09-09T08:02:00;3.35;;;0.70;;
8895;SDS011;4484;48.928;10.066;2022-09-09T08:04:30;3.40;;;0.75;;
8895;SDS011;4484;48.928;10.066;2022-09-09T08:06:58;2.63;;;0.57;;
8895;SDS011;4484;48.928;10.066;2022-09-09T08:09:29;1.38;;;0.55;;
8895;SDS011;4484;48.928;10.066;2022-09-09T08:12:36;2.38;;;0.90;;
8895;SDS011;4484;48.928;10.066;2022-09-09T08:15:04;1.75;;;0.70;;
8895;SDS011;4484;48.928;10.066;2022-09-09T08:17:32;3.15;;;0.82;;
8895;SDS011;4484;48.928;10.066;2022-09-09T08:20:05;1.85;;;0.70;;
8895;SDS011;4484;48.928;10.066;2022-09-09T08:22:33;1.63;;;0.80;;
8895;SDS011;4484;48.928;10.066;2022-09-09T08:25:00;1.42;;;0.68;;
8895;SDS011;4484;48.928;10.066;2022-09-09T08:27:31;2.63;;;0.90;;
8895;SDS011;4484;48.928;10.066;2022-09-09T08:29:59;1.65;;;0.70;;
8895;SDS011;4484;48.928;10.066;2022-09-09T08:32:28;1.55;;;0.60;;
8895;SDS011;4484;48.928;10.066;2022-09-09T08:34:55;3.47;;;0.93;;
8895;SDS011;4484;48.928;10.066;2022-09-09T08:37:28;1.90;;;0.80;;
8895;SDS011;4484;48.928;10.066;2022-09-09T08:39:56;2.85;;;0.80;;
8895;SDS011;4484;48.928;10.066;2022-09-09T08:42:57;2.35;;;0.80;;
8895;SDS011;4484;48.928;10.066;2022-09-09T08:50:30;2.90;;;0.80;;
8895;SDS011;4484;48.928;10.066;2022-09-09T08:53:22;2.83;;;0.80;;
8895;SDS011;4484;48.928;10.066;2022-09-09T08:55:57;2.33;;;0.85;;
8895;SDS011;4484;48.928;10.066;2022-09-09T08:58:46;2.72;;;1.15;;
8895;SDS011;4484;48.928;10.066;2022-09-09T09:09:42;2.60;;;1.00;;
8895;SDS011;4484;48.928;10.066;2022-09-09T09:12:21;3.13;;;0.70;;
8895;SDS011;4484;48.928;10.066;2022-09-09T09:14:53;5.22;;;0.77;;
8895;SDS011;4484;48.928;10.066;2022-09-09T09:17:23;2.55;;;0.80;;
8895;SDS011;4484;48.928;10.066;2022-09-09T09:19:53;2.35;;;0.80;;
8895;SDS011;4484;48.928;10.066;2022-09-09T09:22:23;2.13;;;0.80;;
8895;SDS011;4484;48.928;10.066;2022-09-09T09:30:41;1.73;;;0.93;;
8895;SDS011;4484;48.928;10.066;2022-09-09T09:36:13;4.07;;;0.90;;
8895;SDS011;4484;48.928;10.066;2022-09-09T09:39:21;2.50;;;0.82;;
8895;SDS011;4484;48.928;10.066;2022-09-09T09:42:12;3.10;;;0.80;;
8895;SDS011;4484;48.928;10.066;2022-09-09T09:44:45;3.25;;;0.80;;
8895;SDS011;4484;48.928;10.066;2022-09-09T09:47:19;2.47;;;0.82;;
8895;SDS011;4484;48.928;10.066;2022-09-09T09:50:00;4.20;;;0.95;;
8895;SDS011;4484;48.928;10.066;2022-09-09T09:52:35;6.80;;;0.85;;
8895;SDS011;4484;48.928;10.066;2022-09-09T09:55:04;1.30;;;0.70;;
8895;SDS011;4484;48.928;10.066;2022-09-09T09:57:41;1.08;;;0.60;;
8895;SDS011;4484;48.928;10.066;2022-09-09T10:02:56;2.50;;;0.90;;
8895;SDS011;4484;48.928;10.066;2022-09-09T10:05:30;2.65;;;1.00;;
8895;SDS011;4484;48.928;10.066;2022-09-09T10:08:14;1.27;;;0.50;;
8895;SDS011;4484;48.928;10.066;2022-09-09T10:19:19;2.20;;;0.95;;
8895;SDS011;4484;48.928;10.066;2022-09-09T10:22:06;2.35;;;1.00;;
8895;SDS011;4484;48.928;10.066;2022-09-09T10:24:50;2.13;;;0.88;;
8895;SDS011;4484;48.928;10.066;2022-09-09T10:33:25;1.95;;;0.80;;
8895;SDS011;4484;48.928;10.066;2022-09-09T10:36:23;1.10;;;0.68;;
8895;SDS011;4484;48.928;10.066;2022-09-09T10:39:06;2.15;;;0.60;;
8895;SDS011;4484;48.928;10.066;2022-09-09T10:41:56;1.23;;;0.73;;
8895;SDS011;4484;48.928;10.066;2022-09-09T10:47:39;2.88;;;0.98;;
8895;SDS011;4484;48.928;10.066;2022-09-09T10:56:21;2.88;;;0.80;;
8895;SDS011;4484;48.928;10.066;2022-09-09T11:01:23;6.28;;;1.00;;
8895;SDS011;4484;48.928;10.066;2022-09-09T11:04:01;2.47;;;1.00;;
8895;SDS011;4484;48.928;10.066;2022-09-09T11:06:34;2.63;;;0.60;;
8895;SDS011;4484;48.928;10.066;2022-09-09T11:09:08;1.63;;;0.73;;
8895;SDS011;4484;48.928;10.066;2022-09-09T11:11:53;2.05;;;0.88;;
8895;SDS011;4484;48.928;10.066;2022-09-09T11:17:04;4.80;;;0.85;;
8895;SDS011;4484;48.928;10.066;2022-09-09T11:19:39;3.30;;;0.95;;
8895;SDS011;4484;48.928;10.066;2022-09-09T11:24:58;2.75;;;1.02;;
8895;SDS011;4484;48.928;10.066;2022-09-09T11:30:25;1.33;;;0.57;;
8895;SDS011;4484;48.928;10.066;2022-09-09T11:41:45;1.92;;;0.70;;
8895;SDS011;4484;48.928;10.066;2022-09-09T11:44:12;1.60;;;0.70;;
8895;SDS011;4484;48.928;10.066;2022-09-09T11:46:48;2.90;;;0.88;;
8895;SDS011;4484;48.928;10.066;2022-09-09T11:49:39;2.22;;;0.75;;
8895;SDS011;4484;48.928;10.066;2022-09-09T11:52:12;1.65;;;0.85;;
8895;SDS011;4484;48.928;10.066;2022-09-09T11:54:48;2.42;;;0.85;;
8895;SDS011;4484;48.928;10.066;2022-09-09T11:57:23;1.35;;;0.70;;
8895;SDS011;4484;48.928;10.066;2022-09-09T11:59:52;3.47;;;0.95;;
8895;SDS011;4484;48.928;10.066;2022-09-09T12:02:25;4.18;;;0.77;;
8895;SDS011;4484;48.928;10.066;2022-09-09T12:12:51;3.40;;;0.65;;
8895;SDS011;4484;48.928;10.066;2022-09-09T12:17:48;1.65;;;0.52;;
8895;SDS011;4484;48.928;10.066;2022-09-09T12:20:23;2.50;;;0.63;;
8895;SDS011;4484;48.928;10.066;2022-09-09T12:23:04;1.75;;;0.63;;
8895;SDS011;4484;48.928;10.066;2022-09-09T12:25:46;4.47;;;0.70;;
8895;SDS011;4484;48.928;10.066;2022-09-09T12:34:22;2.78;;;0.90;;
8895;SDS011;4484;48.928;10.066;2022-09-09T12:37:12;2.08;;;0.50;;
8895;SDS011;4484;48.928;10.066;2022-09-09T12:46:02;1.80;;;0.68;;
8895;SDS011;4484;48.928;10.066;2022-09-09T12:48:41;7.18;;;0.70;;
8895;SDS011;4484;48.928;10.066;2022-09-09T12:51:22;2.40;;;0.68;;
8895;SDS011;4484;48.928;10.066;2022-09-09T12:53:53;4.68;;;0.63;;
8895;SDS011;4484;48.928;10.066;2022-09-09T12:56:25;1.95;;;0.65;;
8895;SDS011;4484;48.928;10.066;2022-09-09T12:58:56;3.73;;;0.60;;
8895;SDS011;4484;48.928;10.066;2022-09-09T13:01:28;5.57;;;0.73;;
8895;SDS011;4484;48.928;10.066;2022-09-09T13:03:57;1.60;;;0.47;;
8895;SDS011;4484;48.928;10.066;2022-09-09T13:06:25;0.90;;;0.60;;
8895;SDS011;4484;48.928;10.066;2022-09-09T13:08:55;0.77;;;0.40;;
8895;SDS011;4484;48.928;10.066;2022-09-09T13:11:34;4.03;;;0.50;;
8895;SDS011;4484;48.928;10.066;2022-09-09T13:14:14;4.27;;;0.80;;
8895;SDS011;4484;48.928;10.066;2022-09-09T13:16:56;1.83;;;0.40;;
8895;SDS011;4484;48.928;10.066;2022-09-09T13:19:25;2.27;;;0.50;;
8895;SDS011;4484;48.928;10.066;2022-09-09T13:21:55;1.00;;;0.50;;
8895;SDS011;4484;48.928;10.066;2022-09-09T13:24:24;1.43;;;0.57;;
8895;SDS011;4484;48.928;10.066;2022-09-09T13:27:02;1.23;;;0.50;;
8895;SDS011;4484;48.928;10.066;2022-09-09T13:29:52;0.63;;;0.43;;
8895;SDS011;4484;48.928;10.066;2022-09-09T13:32:23;1.02;;;0.50;;
8895;SDS011;4484;48.928;10.066;2022-09-09T13:34:56;0.98;;;0.52;;
8895;SDS011;4484;48.928;10.066;2022-09-09T13:39:57;1.58;;;0.60;;
8895;SDS011;4484;48.928;10.066;2022-09-09T13:42:25;1.70;;;0.60;;
8895;SDS011;4484;48.928;10.066;2022-09-09T13:44:55;5.75;;;0.80;;
8895;SDS011;4484;48.928;10.066;2022-09-09T13:47:33;1.45;;;0.60;;
8895;SDS011;4484;48.928;10.066;2022-09-09T13:50:19;1.27;;;0.63;;
8895;SDS011;4484;48.928;10.066;2022-09-09T13:52:54;2.25;;;0.60;;
8895;SDS011;4484;48.928;10.066;2022-09-09T13:55:27;2.17;;;0.50;;
8895;SDS011;4484;48.928;10.066;2022-09-09T13:57:59;1.30;;;0.65;;
8895;SDS011;4484;48.928;10.066;2022-09-09T14:00:32;2.55;;;0.55;;
8895;SDS011;4484;48.928;10.066;2022-09-09T14:03:00;0.88;;;0.60;;
8895;SDS011;4484;48.928;10.066;2022-09-09T14:05:31;0.95;;;0.50;;
8895;SDS011;4484;48.928;10.066;2022-09-09T14:07:59;1.02;;;0.70;;
8895;SDS011;4484;48.928;10.066;2022-09-09T14:10:27;1.52;;;0.50;;
8895;SDS011;4484;48.928;10.066;2022-09-09T14:12:54;2.22;;;0.52;;
8895;SDS011;4484;48.928;10.066;2022-09-09T14:15:20;2.35;;;0.60;;
8895;SDS011;4484;48.928;10.066;2022-09-09T14:17:48;1.73;;;0.65;;
8895;SDS011;4484;48.928;10.066;2022-09-09T14:20:15;1.08;;;0.50;;
8895;SDS011;4484;48.928;10.066;2022-09-09T14:22:43;2.15;;;0.50;;
8895;SDS011;4484;48.928;10.066;2022-09-09T14:25:10;2.33;;;0.98;;
8895;SDS011;4484;48.928;10.066;2022-09-09T14:27:40;2.40;;;0.55;;
8895;SDS011;4484;48.928;10.066;2022-09-09T14:30:08;1.20;;;0.60;;
8895;SDS011;4484;48.928;10.066;2022-09-09T14:32:36;1.50;;;0.50;;
8895;SDS011;4484;48.928;10.066;2022-09-09T14:35:03;1.00;;;0.40;;
8895;SDS011;4484;48.928;10.066;2022-09-09T14:37:30;0.82;;;0.40;;
8895;SDS011;4484;48.928;10.066;2022-09-09T14:39:57;1.65;;;0.60;;
8895;SDS011;4484;48.928;10.066;2022-09-09T14:42:24;1.65;;;0.85;;
8895;SDS011;4484;48.928;10.066;2022-09-09T14:44:52;4.78;;;0.77;;
8895;SDS011;4484;48.928;10.066;2022-09-09T14:47:19;2.92;;;0.57;;
8895;SDS011;4484;48.928;10.066;2022-09-09T14:49:46;1.00;;;0.50;;
8895;SDS011;4484;48.928;10.066;2022-09-09T14:52:15;3.22;;;0.70;;
8895;SDS011;4484;48.928;10.066;2022-09-09T14:54:42;1.10;;;0.40;;
8895;SDS011;4484;48.928;10.066;2022-09-09T14:57:09;1.17;;;0.60;;
8895;SDS011;4484;48.928;10.066;2022-09-09T14:59:36;2.08;;;0.40;;
8895;SDS011;4484;48.928;10.066;2022-09-09T15:02:04;2.35;;;0.47;;
8895;SDS011;4484;48.928;10.066;2022-09-09T15:04:31;1.00;;;0.50;;
8895;SDS011;4484;48.928;10.066;2022-09-09T15:06:59;1.60;;;0.80;;
8895;SDS011;4484;48.928;10.066;2022-09-09T15:09:26;2.17;;;0.55;;
8895;SDS011;4484;48.928;10.066;2022-09-09T15:12:00;2.08;;;0.50;;
8895;SDS011;4484;48.928;10.066;2022-09-09T15:17:21;2.40;;;0.50;;
8895;SDS011;4484;48.928;10.066;2022-09-09T15:19:47;1.08;;;0.40;;
8895;SDS011;4484;48.928;10.066;2022-09-09T15:22:16;1.83;;;0.40;;
8895;SDS011;4484;48.928;10.066;2022-09-09T15:24:42;3.15;;;0.70;;
8895;SDS011;4484;48.928;10.066;2022-09-09T15:27:09;1.08;;;0.47;;
8895;SDS011;4484;48.928;10.066;2022-09-09T15:29:36;0.53;;;0.33;;
8895;SDS011;4484;48.928;10.066;2022-09-09T15:32:04;0.60;;;0.47;;
8895;SDS011;4484;48.928;10.066;2022-09-09T15:34:32;2.80;;;0.43;;
8895;SDS011;4484;48.928;10.066;2022-09-09T15:36:59;1.55;;;0.47;;
8895;SDS011;4484;48.928;10.066;2022-09-09T15:39:26;2.00;;;0.40;;
8895;SDS011;4484;48.928;10.066;2022-09-09T15:41:53;0.60;;;0.40;;
8895;SDS011;4484;48.928;10.066;2022-09-09T15:44:39;2.10;;;0.40;;
8895;SDS011;4484;48.928;10.066;2022-09-09T15:47:13;2.95;;;0.70;;
8895;SDS011;4484;48.928;10.066;2022-09-09T15:49:41;1.55;;;0.45;;
8895;SDS011;4484;48.928;10.066;2022-09-09T15:52:11;3.30;;;0.73;;
8895;SDS011;4484;48.928;10.066;2022-09-09T15:54:41;4.63;;;0.70;;
8895;SDS011;4484;48.928;10.066;2022-09-09T15:57:10;2.60;;;0.60;;
8895;SDS011;4484;48.928;10.066;2022-09-09T15:59:39;3.33;;;0.40;;
8895;SDS011;4484;48.928;10.066;2022-09-09T16:02:06;4.00;;;0.80;;
8895;SDS011;4484;48.928;10.066;2022-09-09T16:04:33;2.77;;;0.60;;
8895;SDS011;4484;48.928;10.066;2022-09-09T16:07:02;4.43;;;0.90;;
8895;SDS011;4484;48.928;10.066;2022-09-09T16:09:30;2.03;;;0.67;;
8895;SDS011;4484;48.928;10.066;2022-09-09T16:11:59;2.87;;;0.40;;
8895;SDS011;4484;48.928;10.066;2022-09-09T16:14:32;2.20;;;0.60;;
8895;SDS011;4484;48.928;10.066;2022-09-09T17:19:54;4.33;;;0.50;;
8895;SDS011;4484;48.928;10.066;2022-09-09T17:22:21;0.83;;;0.40;;
8895;SDS011;4484;48.928;10.066;2022-09-09T17:24:49;2.67;;;0.50;;
8895;SDS011;4484;48.928;10.066;2022-09-09T17:27:15;1.37;;;0.50;;
8895;SDS011;4484;48.928;10.066;2022-09-09T17:29:42;1.30;;;0.50;;
8895;SDS011;4484;48.928;10.066;2022-09-09T17:32:09;0.90;;;0.33;;
8895;SDS011;4484;48.928;10.066;2022-09-09T17:34:36;4.50;;;0.60;;
8895;SDS011;4484;48.928;10.066;2022-09-09T17:37:04;2.43;;;0.70;;
8895;SDS011;4484;48.928;10.066;2022-09-09T17:39:32;1.17;;;0.60;;
8895;SDS011;4484;48.928;10.066;2022-09-09T17:41:59;5.30;;;0.50;;
8895;SDS011;4484;48.928;10.066;2022-09-09T17:44:27;1.53;;;0.57;;
8895;SDS011;4484;48.928;10.066;2022-09-09T17:46:55;3.10;;;0.70;;
8895;SDS011;4484;48.928;10.066;2022-09-09T17:49:23;1.13;;;0.60;;
8895;SDS011;4484;48.928;10.066;2022-09-09T17:51:49;2.17;;;0.50;;
8895;SDS011;4484;48.928;10.066;2022-09-09T17:54:17;2.00;;;0.60;;
8895;SDS011;4484;48.928;10.066;2022-09-09T17:56:46;2.63;;;0.80;;
8895;SDS011;4484;48.928;10.066;2022-09-09T17:59:14;2.13;;;0.60;;
8895;SDS011;4484;48.928;10.066;2022-09-09T18:01:43;1.43;;;0.70;;
8895;SDS011;4484;48.928;10.066;2022-09-09T18:04:13;2.43;;;0.60;;
8895;SDS011;4484;48.928;10.066;2022-09-09T18:06:45;0.77;;;0.43;;
8895;SDS011;4484;48.928;10.066;2022-09-09T18:09:15;0.87;;;0.53;;
8895;SDS011;4484;48.928;10.066;2022-09-09T18:11:48;1.93;;;0.77;;
8895;SDS011;4484;48.928;10.066;2022-09-09T18:14:17;2.07;;;1.10;;
8895;SDS011;4484;48.928;10.066;2022-09-09T18:16:47;1.27;;;0.60;;
8895;SDS011;4484;48.928;10.066;2022-09-09T18:19:15;0.90;;;0.50;;
8895;SDS011;4484;48.928;10.066;2022-09-09T18:21:44;2.43;;;0.50;;
8895;SDS011;4484;48.928;10.066;2022-09-09T18:24:12;0.70;;;0.40;;
8895;SDS011;4484;48.928;10.066;2022-09-09T18:26:41;0.50;;;0.40;;
8895;SDS011;4484;48.928;10.066;2022-09-09T18:29:10;1.00;;;0.40;;
8895;SDS011;4484;48.928;10.066;2022-09-09T18:31:38;0.97;;;0.30;;
8895;SDS011;4484;48.928;10.066;2022-09-09T18:34:08;1.20;;;0.40;;